createdAt,value
2023-01-22T00:01:13.143Z,10.80
2023-01-22T00:03:40.820Z,12.40
2023-01-22T00:06:08.380Z,12.10
2023-01-22T00:08:35.615Z,11.00
2023-01-22T00:11:02.762Z,11.00
2023-01-22T00:13:29.913Z,10.90
2023-01-22T00:15:57.814Z,11.50
2023-01-22T00:18:25.506Z,11.40
2023-01-22T00:20:53.802Z,12.30
2023-01-22T00:23:21.077Z,13.50
2023-01-22T00:25:48.224Z,12.10
2023-01-22T00:28:17.110Z,11.00
2023-01-22T00:30:44.259Z,11.10
2023-01-22T00:33:11.745Z,10.30
2023-01-22T00:35:39.895Z,10.00
2023-01-22T00:38:07.145Z,10.80
2023-01-22T00:40:34.463Z,10.30
2023-01-22T00:43:01.752Z,10.50
2023-01-22T00:45:29.102Z,10.70
2023-01-22T00:47:56.158Z,10.50
2023-01-22T00:50:23.226Z,10.20
2023-01-22T00:52:50.345Z,10.20
2023-01-22T00:55:17.699Z,10.60
2023-01-22T00:57:45.157Z,9.60
2023-01-22T01:00:15.201Z,9.70
2023-01-22T01:03:01.262Z,9.50
2023-01-22T01:05:28.518Z,9.80
2023-01-22T01:07:55.670Z,11.00
2023-01-22T01:10:23.022Z,9.10
2023-01-22T01:12:50.174Z,9.90
2023-01-22T01:15:19.173Z,10.50
2023-01-22T01:17:46.622Z,11.00
2023-01-22T01:20:13.897Z,11.30
2023-01-22T01:22:41.130Z,10.90
2023-01-22T01:25:08.380Z,11.40
2023-01-22T01:27:35.632Z,12.50
2023-01-22T01:30:02.813Z,11.10
2023-01-22T01:32:29.947Z,12.20
2023-01-22T01:34:57.184Z,11.10
2023-01-22T01:37:24.342Z,13.30
2023-01-22T01:39:54.547Z,13.10
2023-01-22T01:42:26.426Z,12.80
2023-01-22T01:45:32.384Z,12.50
2023-01-22T01:48:02.591Z,13.10
2023-01-22T01:50:29.844Z,11.60
2023-01-22T01:52:57.300Z,13.30
2023-01-22T01:55:27.873Z,14.10
2023-01-22T01:57:57.198Z,14.20
2023-01-22T02:06:44.508Z,14.10
2023-01-22T02:09:12.156Z,14.80
2023-01-22T02:11:39.921Z,16.40
2023-01-22T02:14:28.675Z,15.20
2023-01-22T02:17:15.699Z,15.10
2023-01-22T02:19:44.229Z,15.10
2023-01-22T02:22:26.269Z,14.70
2023-01-22T02:24:53.687Z,15.10
2023-01-22T02:27:21.078Z,15.60
2023-01-22T02:29:48.853Z,15.80
2023-01-22T02:32:16.206Z,15.70
2023-01-22T02:34:43.467Z,18.30
2023-01-22T02:37:10.915Z,17.50
2023-01-22T02:39:38.065Z,17.60
2023-01-22T02:42:06.137Z,17.50
2023-01-22T02:44:33.491Z,18.50
2023-01-22T02:47:00.800Z,17.40
2023-01-22T02:49:28.089Z,17.30
2023-01-22T02:51:55.351Z,19.10
2023-01-22T02:54:23.113Z,19.00
2023-01-22T02:56:50.886Z,18.70
2023-01-22T02:59:18.433Z,16.30
2023-01-22T03:01:45.680Z,16.50
2023-01-22T03:04:13.469Z,17.20
2023-01-22T03:06:46.129Z,18.90
2023-01-22T03:09:15.011Z,18.90
2023-01-22T03:11:43.290Z,18.60
2023-01-22T03:14:32.144Z,16.70
2023-01-22T03:17:18.164Z,16.60
2023-01-22T03:20:04.256Z,18.10
2023-01-22T03:22:32.215Z,19.20
2023-01-22T03:25:01.707Z,18.60
2023-01-22T03:27:30.314Z,17.30
2023-01-22T03:29:58.295Z,18.00
2023-01-22T03:32:25.818Z,15.70
2023-01-22T03:34:54.090Z,16.40
2023-01-22T03:37:21.855Z,15.90
2023-01-22T03:39:51.263Z,16.90
2023-01-22T03:42:25.278Z,17.10
2023-01-22T03:44:52.525Z,17.80
2023-01-22T03:47:20.116Z,16.70
2023-01-22T03:49:47.237Z,15.50
2023-01-22T03:52:14.572Z,15.20
2023-01-22T03:54:41.735Z,16.00
2023-01-22T03:57:09.701Z,16.50
2023-01-22T03:59:38.284Z,15.20
2023-01-22T04:02:05.459Z,15.30
2023-01-22T04:04:36.493Z,15.60
2023-01-22T04:07:03.524Z,17.10
2023-01-22T04:09:30.622Z,15.80
2023-01-22T04:11:58.546Z,17.90
2023-01-22T04:14:26.714Z,18.20
2023-01-22T04:16:59.302Z,18.50
2023-01-22T04:19:45.280Z,18.70
2023-01-22T04:22:36.698Z,15.50
2023-01-22T04:25:04.879Z,15.00
2023-01-22T04:27:32.019Z,15.60
2023-01-22T04:29:59.172Z,18.00
2023-01-22T04:32:26.232Z,18.30
2023-01-22T04:35:04.640Z,15.60
2023-01-22T04:37:38.642Z,17.00
2023-01-22T04:40:06.611Z,15.50
2023-01-22T04:42:36.626Z,15.70
2023-01-22T04:45:05.126Z,17.80
2023-01-22T04:47:32.469Z,16.40
2023-01-22T04:49:59.626Z,15.40
2023-01-22T04:52:26.777Z,16.70
2023-01-22T04:54:54.220Z,14.50
2023-01-22T04:57:22.493Z,16.40
2023-01-22T04:59:50.975Z,15.10
2023-01-22T05:02:18.540Z,16.00
2023-01-22T05:04:46.194Z,13.40
2023-01-22T05:07:13.962Z,14.50
2023-01-22T05:09:41.115Z,14.10
2023-01-22T05:12:08.261Z,15.10
2023-01-22T05:14:40.735Z,14.80
2023-01-22T05:17:08.701Z,16.30
2023-01-22T05:19:35.851Z,14.70
2023-01-22T05:22:06.231Z,14.00
2023-01-22T05:24:33.757Z,14.50
2023-01-22T05:27:01.088Z,15.80
2023-01-22T05:29:34.585Z,16.20
2023-01-22T05:32:15.996Z,15.70
2023-01-22T05:34:48.514Z,14.70
2023-01-22T05:37:15.695Z,15.00
2023-01-22T05:39:42.854Z,15.50
2023-01-22T05:42:15.972Z,14.90
2023-01-22T05:44:45.338Z,15.20
2023-01-22T05:47:13.721Z,16.30
2023-01-22T05:50:10.873Z,15.10
2023-01-22T05:52:38.019Z,13.80
2023-01-22T05:55:05.985Z,14.00
2023-01-22T05:57:40.116Z,13.60
2023-01-22T06:00:08.767Z,13.70
2023-01-22T06:02:44.140Z,14.40
2023-01-22T06:05:12.014Z,13.10
2023-01-22T06:07:40.694Z,13.40
2023-01-22T06:10:08.690Z,13.50
2023-01-22T06:12:39.973Z,12.40
2023-01-22T06:15:08.479Z,12.70
2023-01-22T06:17:35.932Z,12.50
2023-01-22T06:20:04.211Z,11.60
2023-01-22T06:22:33.023Z,11.70
2023-01-22T06:25:01.699Z,11.10
2023-01-22T06:27:41.326Z,11.50
2023-01-22T06:30:09.511Z,11.90
2023-01-22T06:32:36.749Z,11.70
2023-01-22T06:35:04.006Z,11.50
2023-01-22T06:37:31.051Z,10.20
2023-01-22T06:39:58.207Z,10.30
2023-01-22T06:42:29.552Z,11.10
2023-01-22T06:44:56.901Z,11.60
2023-01-22T06:47:25.487Z,10.00
2023-01-22T06:49:52.633Z,10.90
2023-01-22T06:52:19.785Z,10.40
2023-01-22T06:54:47.037Z,8.90
2023-01-22T06:57:14.393Z,9.00
2023-01-22T06:59:41.648Z,8.80
2023-01-22T07:02:16.691Z,8.50
2023-01-22T07:04:43.826Z,8.60
2023-01-22T07:07:11.288Z,7.90
2023-01-22T07:09:38.742Z,9.00
2023-01-22T07:12:07.529Z,7.20
2023-01-22T07:14:37.519Z,7.30
2023-01-22T07:19:32.360Z,7.20
2023-01-22T07:21:59.610Z,8.60
2023-01-22T07:24:26.891Z,7.20
2023-01-22T07:26:54.110Z,6.70
2023-01-22T07:29:21.370Z,7.80
2023-01-22T07:31:49.877Z,14.90
2023-01-22T07:34:17.307Z,9.50
2023-01-22T07:36:46.706Z,6.90
2023-01-22T07:39:14.160Z,6.40
2023-01-22T07:41:41.310Z,7.70
2023-01-22T07:44:12.050Z,8.90
2023-01-22T07:46:39.333Z,7.40
2023-01-22T07:49:06.911Z,7.00
2023-01-22T07:51:34.001Z,6.40
2023-01-22T07:54:01.152Z,6.90
2023-01-22T07:56:29.303Z,6.80
2023-01-22T07:58:56.478Z,6.10
2023-01-22T08:01:23.758Z,6.20
2023-01-22T08:03:50.993Z,6.40
2023-01-22T08:06:18.563Z,5.90
2023-01-22T08:08:45.788Z,6.10
2023-01-22T08:11:13.146Z,6.00
2023-01-22T08:13:40.513Z,6.60
2023-01-22T08:16:09.810Z,9.40
2023-01-22T08:18:37.382Z,8.10
2023-01-22T08:21:04.833Z,6.10
2023-01-22T08:23:32.692Z,8.70
2023-01-22T08:26:00.799Z,6.30
2023-01-22T08:28:28.209Z,6.80
2023-01-22T08:31:02.246Z,7.90
2023-01-22T08:33:30.343Z,6.50
2023-01-22T08:35:57.645Z,7.50
2023-01-22T08:38:24.691Z,7.30
2023-01-22T08:40:53.907Z,6.20
2023-01-22T08:43:21.216Z,7.80
2023-01-22T08:45:49.407Z,6.70
2023-01-22T08:52:50.999Z,6.90
2023-01-22T08:55:18.047Z,6.20
2023-01-22T08:57:45.197Z,5.80
2023-01-22T09:00:13.715Z,7.10
2023-01-22T09:02:40.833Z,7.20
2023-01-22T09:05:08.658Z,7.60
2023-01-22T09:07:35.842Z,7.80
2023-01-22T09:10:04.280Z,8.80
2023-01-22T09:12:31.371Z,6.30
2023-01-22T09:14:58.672Z,6.10
2023-01-22T09:17:25.770Z,7.00
2023-01-22T09:19:52.867Z,6.90
2023-01-22T09:22:21.055Z,7.60
2023-01-22T09:24:48.968Z,6.40
2023-01-22T09:27:16.112Z,7.10
2023-01-22T09:29:45.312Z,5.70
2023-01-22T09:32:12.697Z,5.10
2023-01-22T09:34:40.179Z,5.80
2023-01-22T09:37:09.518Z,7.90
2023-01-22T09:39:36.832Z,5.70
2023-01-22T09:42:04.232Z,7.70
2023-01-22T09:44:38.405Z,6.60
2023-01-22T09:47:17.861Z,6.40
2023-01-22T09:50:21.894Z,5.60
2023-01-22T09:52:50.587Z,6.90
2023-01-22T09:55:19.228Z,8.60
2023-01-22T09:57:51.072Z,6.40
2023-01-22T10:00:24.119Z,7.90
2023-01-22T10:02:53.515Z,6.40
2023-01-22T10:05:34.235Z,6.40
2023-01-22T10:08:10.447Z,7.10
2023-01-22T10:10:37.595Z,5.70
2023-01-22T10:13:17.033Z,6.80
2023-01-22T10:15:44.286Z,5.70
2023-01-22T10:18:42.699Z,6.70
2023-01-22T10:21:50.295Z,6.00
2023-01-22T10:24:17.621Z,6.20
2023-01-22T10:26:55.215Z,5.20
2023-01-22T10:29:25.651Z,5.90
2023-01-22T10:31:55.292Z,5.50
2023-01-22T10:34:36.623Z,8.70
2023-01-22T10:37:14.858Z,8.40
2023-01-22T10:39:51.100Z,9.70
2023-01-22T10:42:23.310Z,8.10
2023-01-22T10:44:50.727Z,7.80
2023-01-22T10:47:20.977Z,5.30
2023-01-22T10:52:34.906Z,5.60
2023-01-22T10:55:02.218Z,5.70
2023-01-22T10:57:34.146Z,5.50
2023-01-22T11:00:13.781Z,6.30
2023-01-22T11:02:47.583Z,5.90
2023-01-22T11:05:20.967Z,5.70
2023-01-22T11:07:50.915Z,4.60
2023-01-22T11:10:20.121Z,5.00
2023-01-22T11:12:58.081Z,5.20
2023-01-22T11:15:35.509Z,6.10
2023-01-22T11:18:03.132Z,5.60
2023-01-22T11:20:52.505Z,5.80
2023-01-22T11:23:48.324Z,6.70
2023-01-22T11:26:43.125Z,5.80
2023-01-22T11:29:52.361Z,5.50
2023-01-22T11:32:44.189Z,5.20
2023-01-22T11:35:33.078Z,5.30
2023-01-22T11:38:22.870Z,6.10
2023-01-22T11:41:05.037Z,5.60
2023-01-22T11:43:41.106Z,6.00
2023-01-22T11:46:34.072Z,5.10
2023-01-22T11:49:16.113Z,6.30
2023-01-22T11:52:21.797Z,6.40
2023-01-22T11:54:58.304Z,6.80
2023-01-22T11:57:56.439Z,6.70
2023-01-22T12:00:41.377Z,7.10
2023-01-22T12:03:23.428Z,5.90
2023-01-22T12:06:13.403Z,5.00
2023-01-22T12:08:51.083Z,5.70
2023-01-22T12:11:21.310Z,7.50
2023-01-22T12:14:12.331Z,6.40
2023-01-22T12:17:11.360Z,6.80
2023-01-22T12:19:46.463Z,9.80
2023-01-22T12:22:41.497Z,5.60
2023-01-22T12:25:31.406Z,6.50
2023-01-22T12:28:30.173Z,6.10
2023-01-22T12:31:01.749Z,7.00
2023-01-22T12:33:36.741Z,6.80
2023-01-22T12:36:04.579Z,6.80
2023-01-22T12:38:34.859Z,5.60
2023-01-22T12:41:03.194Z,5.90
2023-01-22T12:43:38.095Z,6.80
2023-01-22T12:46:22.226Z,6.10
2023-01-22T12:48:56.190Z,6.30
2023-01-22T12:51:45.243Z,7.10
2023-01-22T12:54:28.399Z,6.10
2023-01-22T12:56:59.650Z,6.50
2023-01-22T12:59:31.612Z,6.20
2023-01-22T13:02:04.177Z,6.50
2023-01-22T13:04:33.730Z,6.70
2023-01-22T13:07:06.813Z,7.00
2023-01-22T13:09:37.265Z,7.20
2023-01-22T13:12:11.990Z,7.10
2023-01-22T13:14:41.425Z,6.50
2023-01-22T13:17:18.065Z,6.30
2023-01-22T13:19:47.575Z,6.40
2023-01-22T13:22:19.979Z,7.20
2023-01-22T13:24:58.750Z,7.40
2023-01-22T13:27:29.519Z,7.50
2023-01-22T13:30:31.586Z,6.40
2023-01-22T13:33:06.820Z,7.00
2023-01-22T13:35:36.316Z,7.20
2023-01-22T13:38:04.688Z,7.50
2023-01-22T13:40:42.665Z,6.70
2023-01-22T13:43:19.400Z,7.80
2023-01-22T13:45:46.840Z,8.80
2023-01-22T13:48:20.736Z,8.30
2023-01-22T13:50:53.732Z,8.10
2023-01-22T13:53:26.369Z,9.50
2023-01-22T13:55:53.679Z,9.00
2023-01-22T13:58:50.488Z,8.40
2023-01-22T14:01:29.638Z,7.00
2023-01-22T14:04:07.866Z,8.40
2023-01-22T14:06:52.084Z,7.50
2023-01-22T14:09:35.926Z,8.20
2023-01-22T14:12:21.123Z,9.10
2023-01-22T14:14:48.281Z,9.00
2023-01-22T14:17:36.150Z,7.80
2023-01-22T14:20:05.373Z,9.00
2023-01-22T14:22:32.736Z,8.90
2023-01-22T14:24:59.984Z,9.20
2023-01-22T14:27:30.249Z,8.60
2023-01-22T14:29:57.364Z,10.50
2023-01-22T14:32:24.815Z,8.30
2023-01-22T14:34:51.980Z,9.30
2023-01-22T14:37:21.574Z,8.60
2023-01-22T14:39:48.897Z,10.30
2023-01-22T14:42:16.662Z,12.40
2023-01-22T14:44:46.091Z,10.40
2023-01-22T14:47:13.350Z,8.50
2023-01-22T14:49:40.900Z,8.90
2023-01-22T14:52:08.265Z,9.90
2023-01-22T14:54:36.128Z,10.90
2023-01-22T14:57:06.344Z,8.90
2023-01-22T15:05:42.141Z,8.80
2023-01-22T15:08:09.801Z,9.60
2023-01-22T15:10:37.062Z,9.40
2023-01-22T15:13:05.060Z,10.10
2023-01-22T15:15:33.001Z,9.60
2023-01-22T15:18:00.459Z,8.40
2023-01-22T15:20:27.904Z,9.40
2023-01-22T15:22:55.157Z,9.00
2023-01-22T15:25:22.318Z,11.50
2023-01-22T15:27:50.072Z,11.90
2023-01-22T15:30:17.962Z,12.40
2023-01-22T15:32:45.515Z,13.20
2023-01-22T15:35:13.500Z,10.90
2023-01-22T15:37:40.730Z,9.90
2023-01-22T15:40:10.909Z,8.50
2023-01-22T15:42:38.310Z,6.30
2023-01-22T15:45:07.395Z,6.70
2023-01-22T15:47:34.645Z,5.80
2023-01-22T15:50:01.859Z,5.20
2023-01-22T15:52:31.506Z,6.70
2023-01-22T15:55:00.700Z,6.40
2023-01-22T15:57:29.281Z,6.50
2023-01-22T15:59:56.638Z,7.00
2023-01-22T16:02:24.323Z,6.60
2023-01-22T16:04:51.765Z,6.70
2023-01-22T16:07:19.727Z,6.10
2023-01-22T16:09:49.019Z,7.10
2023-01-22T16:12:16.918Z,7.80
2023-01-22T16:14:44.245Z,6.20
2023-01-22T16:17:14.425Z,6.10
2023-01-22T16:19:41.821Z,5.50
2023-01-22T16:22:10.487Z,6.50
2023-01-22T16:24:38.846Z,6.80
2023-01-22T16:27:07.716Z,7.30
2023-01-22T16:29:41.423Z,6.30
2023-01-22T16:32:09.546Z,5.20
2023-01-22T16:34:36.902Z,7.30
2023-01-22T16:37:04.178Z,6.70
2023-01-22T16:39:34.846Z,6.50
2023-01-22T16:42:03.476Z,6.40
2023-01-22T16:44:33.458Z,7.20
2023-01-22T16:47:01.258Z,6.30
2023-01-22T16:49:33.395Z,7.00
2023-01-22T16:52:16.686Z,6.60
2023-01-22T16:54:50.599Z,7.50
2023-01-22T16:57:20.584Z,8.30
2023-01-22T16:59:48.233Z,6.40
2023-01-22T17:02:17.471Z,8.10
2023-01-22T17:04:45.867Z,7.70
2023-01-22T17:07:31.591Z,7.40
2023-01-22T17:10:00.897Z,10.80
2023-01-22T17:12:29.070Z,8.50
2023-01-22T17:15:00.665Z,7.80
2023-01-22T17:17:28.488Z,8.20
2023-01-22T17:19:55.648Z,9.60
2023-01-22T17:22:24.923Z,9.20
2023-01-22T17:24:55.111Z,9.90
2023-01-22T17:27:23.125Z,8.30
2023-01-22T17:29:50.439Z,8.70
2023-01-22T17:32:18.663Z,8.60
2023-01-22T17:34:45.906Z,9.80
2023-01-22T17:37:15.398Z,9.30
2023-01-22T17:39:45.857Z,9.40
2023-01-22T17:44:41.883Z,8.70
2023-01-22T17:47:09.533Z,9.20
2023-01-22T17:49:38.079Z,10.20
2023-01-22T17:52:06.116Z,9.50
2023-01-22T17:54:33.475Z,8.90
2023-01-22T17:57:01.466Z,8.60
2023-01-22T17:59:28.962Z,8.40
2023-01-22T18:01:56.890Z,9.70
2023-01-22T18:04:24.483Z,9.70
2023-01-22T18:06:53.585Z,9.50
2023-01-22T18:09:22.404Z,10.60
2023-01-22T18:11:49.995Z,9.50
2023-01-22T18:14:22.077Z,9.90
2023-01-22T18:16:49.739Z,11.20
2023-01-22T18:19:18.840Z,10.40
2023-01-22T18:21:46.305Z,10.60
2023-01-22T18:24:14.652Z,8.80
2023-01-22T18:26:42.784Z,9.50
2023-01-22T18:29:11.567Z,10.70
2023-01-22T18:31:39.744Z,10.80
2023-01-22T18:34:07.693Z,10.80
2023-01-22T18:36:37.025Z,12.00
2023-01-22T18:39:09.160Z,10.30
2023-01-22T18:41:36.837Z,9.30
2023-01-22T18:44:04.304Z,9.20
2023-01-22T18:46:34.223Z,9.00
2023-01-22T18:49:05.051Z,10.90
2023-01-22T18:51:32.713Z,10.40
2023-01-22T18:54:01.343Z,8.50
2023-01-22T18:56:28.647Z,8.40
2023-01-22T18:58:59.197Z,9.70
2023-01-22T19:01:32.308Z,9.90
2023-01-22T19:04:01.467Z,9.40
2023-01-22T19:06:33.248Z,9.20
2023-01-22T19:09:06.941Z,7.70
2023-01-22T19:11:37.211Z,8.60
2023-01-22T19:16:34.206Z,9.20
2023-01-22T19:19:04.893Z,9.20
2023-01-22T19:21:33.185Z,9.40
2023-01-22T19:24:01.701Z,7.30
2023-01-22T19:26:33.716Z,8.90
2023-01-22T19:29:03.857Z,8.80
2023-01-22T19:31:33.637Z,11.10
2023-01-22T19:34:03.187Z,10.70
2023-01-22T19:36:33.890Z,8.70
2023-01-22T19:39:02.854Z,8.70
2023-01-22T19:41:31.002Z,8.80
2023-01-22T19:44:00.515Z,8.60
2023-01-22T19:46:27.891Z,9.90
2023-01-22T19:48:55.966Z,8.10
2023-01-22T19:51:24.935Z,7.30
2023-01-22T19:53:53.423Z,7.90
2023-01-22T19:56:26.171Z,7.20
2023-01-22T19:58:56.843Z,9.10
2023-01-22T20:01:24.591Z,8.60
2023-01-22T20:04:20.765Z,7.70
2023-01-22T20:06:53.120Z,7.30
2023-01-22T20:09:22.137Z,8.20
2023-01-22T20:11:54.193Z,8.60
2023-01-22T20:14:26.464Z,7.80
2023-01-22T20:16:54.723Z,7.00
2023-01-22T20:19:22.587Z,8.90
2023-01-22T20:21:50.112Z,8.10
2023-01-22T20:24:17.505Z,9.00
2023-01-22T20:26:44.813Z,6.80
2023-01-22T20:29:13.337Z,6.80
2023-01-22T20:31:40.846Z,7.80
2023-01-22T20:34:08.133Z,7.40
2023-01-22T20:36:35.791Z,8.40
2023-01-22T20:39:03.501Z,7.10
2023-01-22T20:41:32.729Z,7.70
2023-01-22T20:44:00.106Z,7.00
2023-01-22T20:46:27.594Z,8.30
2023-01-22T20:48:57.386Z,8.30
2023-01-22T20:51:26.913Z,8.10
2023-01-22T20:53:54.769Z,7.70
2023-01-22T20:56:28.529Z,7.60
2023-01-22T20:58:57.401Z,7.70
2023-01-22T21:01:24.780Z,8.20
2023-01-22T21:03:52.349Z,8.80
2023-01-22T21:06:20.200Z,7.20
2023-01-22T21:08:51.978Z,7.70
2023-01-22T21:11:20.762Z,7.90
2023-01-22T21:13:48.916Z,9.30
2023-01-22T21:16:26.656Z,9.00
2023-01-22T21:19:08.341Z,8.30
2023-01-22T21:21:35.925Z,8.80
2023-01-22T21:24:03.300Z,8.50
2023-01-22T21:26:31.542Z,8.50
2023-01-22T21:29:03.941Z,9.90
2023-01-22T21:31:31.477Z,7.20
2023-01-22T21:34:03.316Z,6.90
2023-01-22T21:36:31.672Z,9.30
2023-01-22T21:38:59.417Z,8.40
2023-01-22T21:41:26.658Z,10.70
2023-01-22T21:44:12.995Z,7.70
2023-01-22T21:46:42.228Z,10.70
2023-01-22T21:49:19.997Z,8.50
2023-01-22T21:51:47.129Z,9.30
2023-01-22T21:54:16.990Z,9.00
2023-01-22T21:56:44.069Z,7.50
2023-01-22T21:59:11.137Z,7.30
2023-01-22T22:01:38.298Z,9.50
2023-01-22T22:04:05.848Z,8.60
2023-01-22T22:06:33.211Z,10.10
2023-01-22T22:09:02.195Z,10.40
2023-01-22T22:11:29.261Z,9.60
2023-01-22T22:13:56.821Z,8.80
2023-01-22T22:16:24.217Z,9.40
2023-01-22T22:18:51.445Z,8.40
2023-01-22T22:21:18.746Z,8.40
2023-01-22T22:23:45.998Z,8.90
2023-01-22T22:26:13.176Z,10.20
2023-01-22T22:28:40.390Z,8.80
2023-01-22T22:31:15.067Z,8.20
2023-01-22T22:33:43.136Z,7.50
2023-01-22T22:36:10.538Z,9.20
2023-01-22T22:38:37.808Z,7.20
2023-01-22T22:41:06.811Z,9.70
2023-01-22T22:43:39.339Z,7.10
2023-01-22T22:46:08.770Z,8.20
2023-01-22T22:48:35.979Z,8.50
2023-01-22T22:51:14.534Z,7.80
2023-01-22T22:53:41.801Z,8.20
2023-01-22T22:56:09.727Z,7.30
2023-01-22T22:58:36.947Z,8.00
2023-01-22T23:01:08.798Z,8.00
2023-01-22T23:03:37.233Z,7.50
2023-01-22T23:06:10.496Z,8.20
2023-01-22T23:08:58.077Z,7.10
2023-01-22T23:11:30.155Z,7.80
2023-01-22T23:14:03.287Z,7.80
2023-01-22T23:16:32.745Z,7.20
2023-01-22T23:19:01.324Z,7.70
2023-01-22T23:21:28.698Z,7.50
2023-01-22T23:23:56.101Z,7.10
2023-01-22T23:26:28.265Z,7.80
2023-01-22T23:29:02.829Z,8.10
2023-01-22T23:31:31.667Z,6.80
2023-01-22T23:33:59.718Z,5.40
2023-01-22T23:36:27.291Z,6.10
2023-01-22T23:38:54.777Z,6.30
2023-01-22T23:41:22.135Z,6.80
2023-01-22T23:43:50.208Z,7.60
2023-01-22T23:46:27.965Z,6.80
2023-01-22T23:48:55.767Z,5.60
2023-01-22T23:51:24.038Z,6.70
2023-01-22T23:53:52.793Z,6.70
2023-01-22T23:56:24.959Z,5.80
2023-01-22T23:58:55.874Z,7.00
